Time;durP1;ratioP1;P1;durP2;ratioP2;P2;SDS_P1;SDS_P2;PMS_P1;PMS_P2;Temp;Humidity;BMP_temperature;BMP_pressure;BME280_temperature;BME280_humidity;BME280_pressure;Samples;Min_cycle;Max_cycle;Signal;HPM_P1;HPM_P2
2023/08/13 00:00:16;;;;;;;21.20;10.60;;;;;;;16.91;89.25;101589.22;5111773;28;20086;-68
2023/08/13 00:02:45;;;;;;;18.33;10.80;;;;;;;16.86;89.69;101591.41;5111706;28;20031;-68
2023/08/13 00:05:10;;;;;;;18.52;10.65;;;;;;;16.82;89.97;101591.22;5111672;28;20031;-68
2023/08/13 00:07:37;;;;;;;19.75;10.80;;;;;;;16.78;90.37;101587.44;5111669;28;20047;-68
2023/08/13 00:10:04;;;;;;;21.67;10.90;;;;;;;16.72;90.86;101588.78;5111613;28;20043;-68
2023/08/13 00:12:29;;;;;;;20.08;10.95;;;;;;;16.66;91.05;101580.56;5111526;28;20090;-68
2023/08/13 00:14:55;;;;;;;20.00;11.00;;;;;;;16.65;91.07;101586.47;5111491;28;20429;-68
2023/08/13 00:17:20;;;;;;;21.80;10.77;;;;;;;16.56;92.00;101582.88;5111575;28;20483;-69
2023/08/13 00:19:45;;;;;;;21.30;10.68;;;;;;;16.50;92.32;101577.44;5111605;28;20023;-68
2023/08/13 00:22:11;;;;;;;18.70;10.65;;;;;;;16.51;92.37;101586.66;5111472;28;20629;-68
2023/08/13 00:24:36;;;;;;;19.58;11.10;;;;;;;16.46;92.77;101579.25;5111562;28;20050;-68
2023/08/13 00:27:01;;;;;;;21.55;10.57;;;;;;;16.44;92.87;101577.91;5111423;28;20106;-68
2023/08/13 00:29:27;;;;;;;17.98;10.70;;;;;;;16.42;92.83;101577.47;5111328;28;20138;-68
2023/08/13 00:31:55;;;;;;;19.40;10.55;;;;;;;16.41;93.36;101575.81;5111080;28;20035;-68
2023/08/13 00:34:23;;;;;;;20.65;11.00;;;;;;;16.34;94.26;101581.88;5111253;28;20032;-68
2023/08/13 00:36:48;;;;;;;20.70;11.05;;;;;;;16.31;94.59;101582.53;5111313;28;20055;-68
2023/08/13 00:39:13;;;;;;;21.10;11.25;;;;;;;16.28;94.88;101577.63;5111362;28;20422;-68
2023/08/13 00:41:39;;;;;;;19.83;11.20;;;;;;;16.25;nan;101578.25;5111177;28;20458;-68
2023/08/13 00:44:04;;;;;;;21.23;11.27;;;;;;;16.19;95.20;101583.19;5111287;28;20028;-68
2023/08/13 00:46:30;;;;;;;20.10;10.93;;;;;;;16.15;95.88;101582.19;5111225;28;20073;-68
2023/08/13 00:48:58;;;;;;;19.88;11.20;;;;;;;16.11;95.93;101573.63;5111204;28;20034;-68
2023/08/13 00:51:24;;;;;;;21.55;11.25;;;;;;;16.06;96.71;101574.63;5111202;28;20030;-68
2023/08/13 00:53:49;;;;;;;20.15;11.70;;;;;;;16.05;96.70;101575.78;5109615;28;20032;-68
2023/08/13 00:56:15;;;;;;;20.20;11.15;;;;;;;16.02;96.90;101572.81;5111068;28;20080;-68
2023/08/13 00:58:42;;;;;;;20.83;11.75;;;;;;;16.01;97.11;101576.75;5111242;28;20498;-68
2023/08/13 01:01:07;;;;;;;21.00;11.25;;;;;;;15.98;97.04;101569.03;5111094;28;20035;-68
2023/08/13 01:03:34;;;;;;;19.38;10.85;;;;;;;15.95;97.58;101572.47;5109590;28;20546;-68
2023/08/13 01:06:19;;;;;;;20.30;10.98;;;;;;;15.92;97.62;101567.56;5110936;28;20481;-68
2023/08/13 01:09:12;;;;;;;19.95;11.27;;;;;;;15.89;97.60;101566.22;5109545;28;20074;-69
2023/08/13 01:12:02;;;;;;;21.90;11.10;;;;;;;15.85;97.71;101573.59;5111026;28;20081;-68
2023/08/13 01:14:35;;;;;;;18.42;10.70;;;;;;;15.84;98.24;101566.38;5110889;28;20100;-68
2023/08/13 01:17:02;;;;;;;20.50;10.55;;;;;;;15.85;98.89;101576.41;5110981;28;20066;-67
2023/08/13 01:19:27;;;;;;;20.50;10.90;;;;;;;15.84;98.76;101571.97;5109325;28;20058;-67
2023/08/13 01:21:53;;;;;;;19.20;10.70;;;;;;;15.79;99.38;101572.06;5110710;28;20059;-67
2023/08/13 01:24:18;;;;;;;20.95;11.07;;;;;;;15.75;99.70;101572.72;5110686;28;20035;-67
2023/08/13 01:26:54;;;;;;;20.58;10.73;;;;;;;15.73;99.98;101574.19;5110763;28;20428;-67
2023/08/13 01:29:51;;;;;;;20.25;10.82;;;;;;;15.64;100.00;101568.59;5110782;28;20063;-68
2023/08/13 01:32:21;;;;;;;20.30;10.70;;;;;;;15.67;100.00;101567.13;5110296;28;20379;-68
2023/08/13 01:34:49;;;;;;;20.15;11.15;;;;;;;15.60;100.00;101567.56;5110845;28;20036;-68
2023/08/13 01:37:14;;;;;;;23.23;10.82;;;;;;;15.61;100.00;101572.00;5110689;28;20055;-68
2023/08/13 01:39:40;;;;;;;21.75;11.00;;;;;;;15.60;100.00;101573.16;5110774;28;20145;-67
2023/08/13 01:42:06;;;;;;;20.58;11.10;;;;;;;15.57;100.00;101573.81;5110772;28;20077;-67
2023/08/13 01:44:32;;;;;;;24.95;11.73;;;;;;;15.54;100.00;101580.84;5113303;28;20130;-67
2023/08/13 01:46:57;;;;;;;19.90;10.77;;;;;;;15.50;100.00;101579.84;5114374;28;20106;-67
2023/08/13 01:49:22;;;;;;;23.52;11.48;;;;;;;15.48;100.00;101570.19;5114316;27;20028;-67
2023/08/13 01:51:48;;;;;;;20.85;11.00;;;;;;;15.51;100.00;101575.94;5114249;27;20032;-67
2023/08/13 01:54:13;;;;;;;20.00;10.90;;;;;;;15.50;100.00;101590.19;5114118;28;20525;-67
2023/08/13 01:56:38;;;;;;;20.58;10.77;;;;;;;15.49;100.00;101589.38;5114165;28;20054;-67
2023/08/13 01:59:04;;;;;;;19.88;10.73;;;;;;;15.49;100.00;101594.13;5114182;28;20027;-67
2023/08/13 02:01:29;;;;;;;21.50;11.15;;;;;;;15.49;100.00;101591.34;5114037;28;20026;-67
2023/08/13 02:03:54;;;;;;;19.75;10.80;;;;;;;15.50;100.00;101582.66;5114172;28;20032;-67
2023/08/13 02:06:20;;;;;;;19.65;10.13;;;;;;;15.53;100.00;101590.38;5112642;28;20421;-67
2023/08/13 02:08:45;;;;;;;20.60;10.30;;;;;;;15.55;100.00;101590.84;5113939;28;20047;-67
2023/08/13 02:11:10;;;;;;;21.17;10.52;;;;;;;15.53;100.00;101582.00;5113880;27;20142;-67
2023/08/13 02:13:36;;;;;;;17.38;10.50;;;;;;;15.53;100.00;101575.59;5113761;28;20542;-67
2023/08/13 02:16:04;;;;;;;21.45;10.75;;;;;;;15.51;100.00;101581.50;5112385;28;20410;-67
2023/08/13 02:18:30;;;;;;;21.73;10.90;;;;;;;15.50;100.00;101574.28;5113772;28;20026;-67
2023/08/13 02:20:55;;;;;;;18.40;10.73;;;;;;;15.50;100.00;101570.66;5113649;28;20032;-67
2023/08/13 02:23:21;;;;;;;19.70;10.70;;;;;;;15.43;100.00;101576.72;5113595;28;20102;-67
2023/08/13 02:25:46;;;;;;;19.85;10.63;;;;;;;15.40;100.00;101580.94;5113484;28;20053;-67
2023/08/13 02:28:12;;;;;;;19.08;10.68;;;;;;;15.36;100.00;101579.97;5113502;28;20114;-67
2023/08/13 02:30:37;;;;;;;18.88;10.55;;;;;;;15.31;100.00;101582.06;5113334;28;20122;-67
2023/08/13 02:33:03;;;;;;;19.38;10.50;;;;;;;15.29;100.00;101582.41;5113449;27;20031;-67
2023/08/13 02:35:28;;;;;;;19.90;11.05;;;;;;;15.26;100.00;101569.09;5113207;28;20360;-67
2023/08/13 02:37:53;;;;;;;20.10;10.70;;;;;;;15.27;100.00;101577.13;5113309;28;20023;-67
2023/08/13 02:40:19;;;;;;;21.83;11.10;;;;;;;15.24;100.00;101566.63;5113312;28;20123;-67
2023/08/13 02:42:44;;;;;;;19.48;11.07;;;;;;;15.26;100.00;101572.69;5113327;28;20028;-67
2023/08/13 02:45:09;;;;;;;19.90;10.82;;;;;;;15.22;100.00;101565.28;5113172;28;20063;-67
2023/08/13 02:47:35;;;;;;;21.42;11.40;;;;;;;15.22;100.00;101565.28;5111732;28;20027;-67
2023/08/13 02:50:00;;;;;;;19.83;10.88;;;;;;;15.18;100.00;101555.94;5113037;28;20032;-67
2023/08/13 02:52:25;;;;;;;20.38;10.73;;;;;;;15.15;100.00;101562.16;5113062;28;20031;-67
2023/08/13 02:54:51;;;;;;;22.63;11.00;;;;;;;15.12;100.00;101564.41;5112726;28;20455;-67
2023/08/13 02:57:16;;;;;;;20.10;11.60;;;;;;;15.11;100.00;101559.19;5113041;28;20027;-67
2023/08/13 02:59:41;;;;;;;20.65;11.00;;;;;;;15.08;100.00;101557.84;5113019;28;20024;-67
2023/08/13 03:02:07;;;;;;;20.10;10.98;;;;;;;15.05;100.00;101563.25;5111322;28;20039;-67
2023/08/13 03:04:32;;;;;;;19.77;10.98;;;;;;;15.06;100.00;101559.31;5112712;28;20102;-67
2023/08/13 03:06:57;;;;;;;21.02;11.65;;;;;;;15.00;100.00;101567.00;5112758;28;20032;-67
2023/08/13 03:09:23;;;;;;;22.98;11.40;;;;;;;14.96;100.00;101560.41;5112635;28;20099;-67
2023/08/13 03:11:49;;;;;;;21.30;10.95;;;;;;;14.92;100.00;101556.63;5112667;28;20020;-68
2023/08/13 03:14:14;;;;;;;21.65;11.50;;;;;;;14.87;100.00;101560.38;5112485;28;20059;-67
2023/08/13 03:16:40;;;;;;;20.45;11.00;;;;;;;14.87;100.00;101563.16;5112676;28;20055;-67
2023/08/13 03:19:06;;;;;;;19.95;10.95;;;;;;;14.84;100.00;101566.56;5112399;28;20429;-67
2023/08/13 03:21:31;;;;;;;19.42;10.80;;;;;;;14.79;100.00;101567.53;5112749;28;20757;-67
2023/08/13 03:23:56;;;;;;;19.48;10.82;;;;;;;14.77;100.00;101572.56;5112700;28;20422;-67
2023/08/13 03:26:21;;;;;;;19.70;11.25;;;;;;;14.73;100.00;101570.75;5112434;28;20432;-67
2023/08/13 03:28:47;;;;;;;20.80;10.70;;;;;;;14.70;100.00;101572.22;5112120;27;20031;-68
2023/08/13 03:31:12;;;;;;;19.88;11.55;;;;;;;14.69;100.00;101559.41;5112426;28;20386;-67
2023/08/13 03:33:37;;;;;;;20.45;11.85;;;;;;;14.69;100.00;101562.19;5112195;28;20070;-67
2023/08/13 03:36:03;;;;;;;20.05;11.27;;;;;;;14.64;100.00;101554.75;5112278;28;20035;-67
2023/08/13 03:38:29;;;;;;;19.90;11.23;;;;;;;14.64;100.00;101567.88;5112187;28;20070;-68
2023/08/13 03:40:55;;;;;;;21.13;11.27;;;;;;;14.58;100.00;101555.19;5112179;28;20042;-67
2023/08/13 03:43:21;;;;;;;20.55;10.98;;;;;;;14.59;100.00;101563.25;5112144;28;20028;-68
2023/08/13 03:45:46;;;;;;;20.92;10.98;;;;;;;14.57;100.00;101567.47;5112077;28;20027;-67
2023/08/13 03:48:12;;;;;;;19.95;11.02;;;;;;;14.53;100.00;101564.50;5111886;28;20055;-67
2023/08/13 03:50:41;;;;;;;20.92;11.00;;;;;;;14.49;100.00;101561.53;5111888;28;20026;-67
2023/08/13 03:53:08;;;;;;;20.15;11.20;;;;;;;14.47;100.00;101558.22;5111839;28;20491;-67
2023/08/13 03:55:33;;;;;;;20.05;10.95;;;;;;;14.47;100.00;101563.81;5111955;28;20035;-67
2023/08/13 03:57:58;;;;;;;19.63;11.00;;;;;;;14.42;100.00;101569.50;5111835;28;20031;-68
2023/08/13 04:00:23;;;;;;;21.83;11.07;;;;;;;14.42;100.00;101563.94;5111772;28;20026;-67
2023/08/13 04:02:49;;;;;;;20.77;11.40;;;;;;;14.42;100.00;101572.28;5111714;28;20039;-67
2023/08/13 04:05:14;;;;;;;22.60;13.18;;;;;;;14.40;100.00;101574.56;5111570;28;20044;-67
2023/08/13 04:07:40;;;;;;;24.02;12.95;;;;;;;14.38;100.00;101571.25;5111145;28;20035;-68
2023/08/13 04:10:06;;;;;;;20.80;12.40;;;;;;;14.37;100.00;101568.81;5111603;28;20035;-67
2023/08/13 04:12:31;;;;;;;21.02;12.23;;;;;;;14.37;100.00;101569.59;5111183;28;20039;-67
2023/08/13 04:14:56;;;;;;;21.55;12.93;;;;;;;14.38;100.00;101576.81;5110954;28;20030;-67
2023/08/13 04:17:21;;;;;;;22.35;12.80;;;;;;;14.39;100.00;101578.47;5111347;28;20105;-67
2023/08/13 04:19:47;;;;;;;21.65;12.32;;;;;;;14.39;100.00;101578.47;5111466;28;20110;-67
2023/08/13 04:22:12;;;;;;;21.10;12.90;;;;;;;14.40;100.00;101582.91;5111217;28;20058;-68
2023/08/13 04:24:37;;;;;;;20.33;12.63;;;;;;;14.39;100.00;101572.09;5111525;28;20023;-68
2023/08/13 04:27:04;;;;;;;21.95;12.10;;;;;;;14.40;100.00;101574.56;5111243;28;20475;-67
2023/08/13 04:29:29;;;;;;;23.95;11.70;;;;;;;14.43;100.00;101573.09;5111062;28;20092;-67
2023/08/13 04:31:55;;;;;;;18.58;11.43;;;;;;;14.46;100.00;101569.69;5111294;28;20438;-68
2023/08/13 04:34:20;;;;;;;21.05;11.35;;;;;;;14.44;100.00;101567.22;5111328;28;20482;-67
2023/08/13 04:36:45;;;;;;;20.63;11.35;;;;;;;14.46;100.00;101567.72;5111318;28;20138;-67
2023/08/13 04:39:11;;;;;;;21.15;11.50;;;;;;;14.47;100.00;101574.13;5111193;28;20433;-68
2023/08/13 04:41:37;;;;;;;18.77;10.80;;;;;;;14.46;100.00;101578.03;5111554;28;20436;-68
2023/08/13 04:44:03;;;;;;;19.90;10.85;;;;;;;14.49;100.00;101571.84;5111198;28;20108;-68
2023/08/13 04:46:28;;;;;;;22.83;11.43;;;;;;;14.53;100.00;101572.03;5111180;28;20027;-68
2023/08/13 04:48:54;;;;;;;20.90;11.07;;;;;;;14.55;100.00;101572.56;5111199;28;20032;-68
2023/08/13 04:51:19;;;;;;;20.52;11.48;;;;;;;14.59;100.00;101576.34;5111086;28;20039;-68
2023/08/13 04:53:45;;;;;;;18.70;10.80;;;;;;;14.64;100.00;101579.03;5110981;28;20015;-68
2023/08/13 04:56:11;;;;;;;19.52;10.85;;;;;;;14.66;100.00;101571.16;5111135;28;20024;-67
2023/08/13 04:58:36;;;;;;;19.67;11.20;;;;;;;14.66;100.00;101585.06;5111176;28;20038;-67
2023/08/13 05:01:02;;;;;;;19.92;10.93;;;;;;;14.67;100.00;101583.97;5110955;28;20073;-67
2023/08/13 05:03:28;;;;;;;22.77;11.32;;;;;;;14.72;100.00;101581.06;5110989;28;20032;-68
2023/08/13 05:05:53;;;;;;;20.70;11.50;;;;;;;14.74;100.00;101578.78;5110996;28;20456;-67
2023/08/13 05:08:18;;;;;;;20.13;11.18;;;;;;;14.79;100.00;101578.66;5111150;28;20548;-67
2023/08/13 05:10:45;;;;;;;20.52;11.35;;;;;;;14.82;100.00;101578.03;5110928;28;20028;-68
2023/08/13 05:13:10;;;;;;;21.45;10.88;;;;;;;14.88;100.00;101577.88;5110808;28;20076;-68
2023/08/13 05:15:35;;;;;;;20.95;10.73;;;;;;;14.88;100.00;101575.91;5110882;28;20436;-68
2023/08/13 05:18:01;;;;;;;23.30;11.60;;;;;;;14.92;100.00;101571.38;5111053;28;20474;-68
2023/08/13 05:20:26;;;;;;;21.27;11.05;;;;;;;14.92;100.00;101568.56;5114909;28;20383;-68
2023/08/13 05:22:51;;;;;;;20.00;11.30;;;;;;;14.98;100.00;101572.88;5114811;28;20117;-68
2023/08/13 05:25:17;;;;;;;19.38;11.18;;;;;;;15.00;100.00;101569.78;5114695;28;20084;-68
2023/08/13 05:27:42;;;;;;;21.27;11.00;;;;;;;14.98;100.00;101570.09;5114668;28;20068;-68
2023/08/13 05:30:08;;;;;;;21.13;10.98;;;;;;;14.96;100.00;101577.13;5114432;28;20039;-68
2023/08/13 05:32:33;;;;;;;20.23;11.15;;;;;;;14.97;100.00;101576.78;5114522;28;20503;-68
2023/08/13 05:34:58;;;;;;;21.40;11.63;;;;;;;15.03;100.00;101576.66;5114687;28;20471;-68
2023/08/13 05:37:24;;;;;;;20.05;11.38;;;;;;;15.02;100.00;101577.81;5114470;28;20424;-68
2023/08/13 05:39:49;;;;;;;22.25;11.68;;;;;;;15.03;100.00;101587.81;5114489;28;20399;-68
2023/08/13 05:42:14;;;;;;;19.70;11.15;;;;;;;15.02;100.00;101588.97;5114225;28;20097;-68
2023/08/13 05:44:40;;;;;;;21.40;11.55;;;;;;;15.01;100.00;101590.09;5114389;28;20450;-68
2023/08/13 05:47:05;;;;;;;20.25;11.70;;;;;;;14.97;100.00;101592.69;5114246;28;20031;-68
2023/08/13 05:49:30;;;;;;;20.67;11.80;;;;;;;15.00;100.00;101591.22;5112674;28;20031;-68
2023/08/13 05:51:56;;;;;;;21.65;11.57;;;;;;;14.98;100.00;101589.59;5114190;28;20074;-68
2023/08/13 05:54:21;;;;;;;22.60;11.82;;;;;;;15.09;100.00;101590.16;5114064;28;20024;-68
2023/08/13 05:56:47;;;;;;;20.90;11.68;;;;;;;15.16;100.00;101592.47;5114048;28;20024;-68
2023/08/13 05:59:12;;;;;;;21.27;11.70;;;;;;;15.24;100.00;101596.47;5114094;28;20027;-67
2023/08/13 06:01:37;;;;;;;19.98;11.52;;;;;;;15.34;100.00;101598.97;5113873;28;20074;-68
2023/08/13 06:04:03;;;;;;;21.30;12.15;;;;;;;15.42;100.00;101606.56;5114179;28;20039;-68
2023/08/13 06:06:28;;;;;;;20.42;12.27;;;;;;;15.52;100.00;101599.88;5113893;28;20095;-67
2023/08/13 06:08:54;;;;;;;24.02;12.30;;;;;;;15.60;100.00;101601.88;5113871;28;20035;-67
2023/08/13 06:11:20;;;;;;;23.27;11.95;;;;;;;15.68;100.00;101600.25;5113769;28;20059;-67
2023/08/13 06:13:45;;;;;;;20.70;12.15;;;;;;;15.77;100.00;101594.72;5113631;28;20076;-67
2023/08/13 06:16:10;;;;;;;20.15;11.52;;;;;;;15.80;100.00;101594.06;5113649;28;20028;-67
2023/08/13 06:18:36;;;;;;;22.45;12.07;;;;;;;15.89;100.00;101597.75;5113694;27;20025;-68
2023/08/13 06:21:03;;;;;;;22.70;12.30;;;;;;;15.95;100.00;101595.63;5113635;28;20329;-68
2023/08/13 06:23:29;;;;;;;22.13;12.00;;;;;;;15.99;100.00;101595.78;5113873;28;20073;-68
2023/08/13 06:25:54;;;;;;;23.75;12.18;;;;;;;16.06;100.00;101602.53;5113585;28;20131;-68
2023/08/13 06:28:19;;;;;;;21.67;12.35;;;;;;;16.17;100.00;101600.25;5113482;28;20032;-68
2023/08/13 06:30:45;;;;;;;22.95;12.70;;;;;;;16.28;100.00;101599.94;5111164;28;20047;-67
2023/08/13 06:33:10;;;;;;;22.17;12.20;;;;;;;16.43;100.00;101601.44;5113451;27;20031;-67
2023/08/13 06:35:35;;;;;;;21.85;12.07;;;;;;;16.53;100.00;101598.31;5113285;28;20027;-68
2023/08/13 06:38:01;;;;;;;21.75;12.02;;;;;;;16.65;100.00;101603.25;5113231;28;20034;-67
2023/08/13 06:40:26;;;;;;;21.70;11.98;;;;;;;16.75;100.00;101602.91;5113329;28;20019;-68
2023/08/13 06:42:51;;;;;;;17.73;11.20;;;;;;;16.86;100.00;101600.59;5113285;28;20475;-67
2023/08/13 06:45:17;;;;;;;19.52;11.52;;;;;;;16.99;100.00;101596.81;5113224;28;20035;-67
2023/08/13 06:47:42;;;;;;;22.15;11.38;;;;;;;17.14;100.00;101597.44;5113108;28;20032;-68
2023/08/13 06:50:08;;;;;;;23.15;11.73;;;;;;;17.22;100.00;101599.38;5113266;28;20489;-68
2023/08/13 06:52:33;;;;;;;19.23;11.50;;;;;;;17.47;100.00;101599.66;5112904;28;20114;-67
2023/08/13 06:54:58;;;;;;;21.30;11.30;;;;;;;17.60;100.00;101604.19;5111329;28;20054;-67
2023/08/13 06:57:24;;;;;;;22.20;11.90;;;;;;;17.69;100.00;101600.53;5113006;28;20023;-67
2023/08/13 06:59:49;;;;;;;21.50;12.45;;;;;;;17.72;100.00;101600.66;5112842;28;20070;-67
2023/08/13 07:02:15;;;;;;;22.58;11.98;;;;;;;17.73;100.00;101607.91;5112701;28;20472;-67
2023/08/13 07:04:40;;;;;;;19.30;11.90;;;;;;;17.80;100.00;101599.00;5112835;28;20035;-67
2023/08/13 07:07:06;;;;;;;22.08;11.70;;;;;;;17.89;100.00;101590.56;5112678;28;20106;-66
2023/08/13 07:09:31;;;;;;;21.17;12.00;;;;;;;18.00;100.00;101591.81;5111351;28;20049;-67
2023/08/13 07:11:56;;;;;;;20.08;11.80;;;;;;;18.07;100.00;101592.13;5112650;28;20024;-67
2023/08/13 07:14:22;;;;;;;21.92;11.70;;;;;;;18.16;100.00;101599.63;5112545;28;20023;-67
2023/08/13 07:16:47;;;;;;;22.48;12.20;;;;;;;18.28;100.00;101596.09;5112677;28;20452;-67
2023/08/13 07:19:12;;;;;;;22.58;11.45;;;;;;;18.47;100.00;101590.00;5112563;28;20040;-67
2023/08/13 07:21:38;;;;;;;21.45;11.52;;;;;;;18.59;100.00;101598.47;5112534;28;20403;-67
2023/08/13 07:24:04;;;;;;;21.38;11.95;;;;;;;18.69;100.00;101588.84;5112434;28;20116;-67
2023/08/13 07:26:30;;;;;;;21.27;12.15;;;;;;;18.78;99.77;101591.53;5112352;28;20031;-67
2023/08/13 07:28:56;;;;;;;20.50;11.82;;;;;;;18.81;98.42;101588.88;5112395;28;20116;-67
2023/08/13 07:31:21;;;;;;;19.60;11.85;;;;;;;18.84;98.16;101590.19;5112207;28;20374;-67
2023/08/13 07:33:46;;;;;;;20.58;11.80;;;;;;;18.92;98.33;101589.28;5112181;28;20115;-67
2023/08/13 07:36:13;;;;;;;21.65;12.07;;;;;;;19.01;97.38;101594.81;5112066;28;20519;-67
2023/08/13 07:38:38;;;;;;;19.85;11.93;;;;;;;19.06;96.72;101594.59;5112105;28;20058;-67
2023/08/13 07:41:03;;;;;;;22.63;12.60;;;;;;;19.18;97.78;101591.81;5111196;28;20028;-67
2023/08/13 07:43:32;;;;;;;19.83;11.75;;;;;;;19.26;96.65;101594.88;5112012;28;20422;-67
2023/08/13 07:45:58;;;;;;;20.02;11.70;;;;;;;19.33;97.02;101597.91;5112011;28;20085;-67
2023/08/13 07:48:23;;;;;;;21.55;12.13;;;;;;;19.35;95.89;101595.59;5111957;28;20027;-67
2023/08/13 07:50:50;;;;;;;19.27;11.20;;;;;;;19.41;95.65;101596.19;5110361;28;20024;-68
2023/08/13 07:53:15;;;;;;;19.92;11.55;;;;;;;19.46;96.28;101596.75;5111715;28;20403;-68
2023/08/13 07:55:40;;;;;;;20.10;11.73;;;;;;;19.49;96.32;101593.25;5111717;28;20023;-67
2023/08/13 07:58:06;;;;;;;20.25;11.68;;;;;;;19.59;96.13;101593.97;5111629;28;20436;-67
2023/08/13 08:00:31;;;;;;;19.52;10.80;;;;;;;19.63;95.28;101592.91;5111694;28;20019;-68
2023/08/13 08:02:57;;;;;;;20.48;11.40;;;;;;;19.76;94.91;101592.94;5111554;28;20031;-67
2023/08/13 08:05:23;;;;;;;20.50;10.70;;;;;;;19.87;92.05;101594.13;5111738;28;20031;-68
2023/08/13 08:07:48;;;;;;;21.02;10.68;;;;;;;20.00;91.74;101592.13;5111669;28;20024;-67
2023/08/13 08:10:14;;;;;;;19.65;10.80;;;;;;;20.20;92.72;101583.91;5111661;28;20088;-67
2023/08/13 08:12:39;;;;;;;20.48;10.85;;;;;;;20.28;91.82;101585.75;5111520;28;20038;-67
2023/08/13 08:15:05;;;;;;;20.90;10.93;;;;;;;20.32;91.39;101585.84;5111341;28;20076;-67
2023/08/13 08:17:31;;;;;;;21.33;10.50;;;;;;;20.31;90.38;101579.41;5110033;28;20022;-68
2023/08/13 08:19:59;;;;;;;19.75;10.60;;;;;;;20.35;89.25;101583.16;5111652;28;20055;-68
2023/08/13 08:22:25;;;;;;;21.45;10.70;;;;;;;20.41;89.68;101580.91;5111804;28;20102;-67
2023/08/13 08:24:50;;;;;;;22.52;10.70;;;;;;;20.47;88.93;101581.47;5111441;28;20115;-67
2023/08/13 08:27:16;;;;;;;21.42;10.40;;;;;;;20.44;87.52;101582.19;5111355;28;20102;-67
2023/08/13 08:29:41;;;;;;;18.45;9.93;;;;;;;20.45;86.67;101583.81;5111024;28;20050;-67
2023/08/13 08:32:06;;;;;;;17.83;10.35;;;;;;;20.49;87.49;101582.75;5111194;28;20070;-67
2023/08/13 08:34:33;;;;;;;19.17;10.20;;;;;;;20.62;88.66;101586.31;5111167;28;20424;-68
2023/08/13 08:36:58;;;;;;;20.95;10.98;;;;;;;20.68;87.99;101584.91;5111348;28;20034;-67
2023/08/13 08:39:24;;;;;;;21.73;10.40;;;;;;;20.75;85.24;101581.50;5111197;28;20035;-67
2023/08/13 08:41:55;;;;;;;21.83;10.50;;;;;;;20.83;85.74;101579.72;5111059;28;20062;-68
2023/08/13 08:44:21;;;;;;;19.13;10.25;;;;;;;20.93;84.88;101579.19;5111546;28;20046;-67
2023/08/13 08:46:51;;;;;;;19.67;10.25;;;;;;;21.08;83.64;101579.56;5111252;28;20023;-67
2023/08/13 08:49:18;;;;;;;19.38;10.40;;;;;;;21.12;85.16;101580.50;5111210;28;20024;-68
2023/08/13 08:51:47;;;;;;;18.65;10.25;;;;;;;21.19;84.46;101575.88;5111199;28;20031;-67
2023/08/13 08:54:14;;;;;;;21.23;10.63;;;;;;;21.24;85.49;101573.97;5115199;28;20028;-67
2023/08/13 08:56:40;;;;;;;22.20;10.82;;;;;;;21.28;83.58;101575.69;5115196;28;20028;-67
2023/08/13 08:59:05;;;;;;;20.45;11.00;;;;;;;21.45;83.23;101573.69;5115269;28;20026;-67
2023/08/13 09:01:31;;;;;;;20.10;10.60;;;;;;;21.46;82.38;101578.13;5115237;28;20028;-67
2023/08/13 09:03:57;;;;;;;22.38;10.50;;;;;;;21.50;82.66;101560.16;5115270;28;20031;-68
2023/08/13 09:06:22;;;;;;;19.42;10.30;;;;;;;21.59;82.49;101571.28;5115131;28;20028;-68
2023/08/13 09:08:48;;;;;;;18.00;10.15;;;;;;;21.72;81.77;101568.38;5115085;28;20031;-68
2023/08/13 09:11:13;;;;;;;19.10;10.02;;;;;;;21.75;81.19;101574.06;5115113;28;20023;-67
2023/08/13 09:13:49;;;;;;;19.02;10.00;;;;;;;21.72;81.01;101560.72;5114960;28;20027;-68
2023/08/13 09:16:14;;;;;;;18.73;10.00;;;;;;;21.68;80.89;101564.63;5114853;28;20042;-68
2023/08/13 09:18:39;;;;;;;17.77;9.73;;;;;;;21.66;78.53;101560.19;5114886;28;20031;-68
2023/08/13 09:21:05;;;;;;;19.58;10.00;;;;;;;21.68;80.28;101556.19;5113500;28;20027;-68
2023/08/13 09:23:30;;;;;;;18.83;10.27;;;;;;;21.71;79.68;101542.19;5114883;28;20070;-68
2023/08/13 09:25:57;;;;;;;17.90;9.95;;;;;;;21.77;77.43;101551.19;5114904;27;20027;-68
2023/08/13 09:28:24;;;;;;;20.48;10.38;;;;;;;21.80;76.87;101554.06;5114892;28;20113;-68
2023/08/13 09:30:50;;;;;;;20.17;10.27;;;;;;;21.95;77.63;101551.59;5114481;28;20143;-67
2023/08/13 09:33:17;;;;;;;17.15;10.00;;;;;;;22.06;76.36;101537.75;5114752;28;20089;-67
2023/08/13 09:35:43;;;;;;;18.55;10.38;;;;;;;22.19;77.60;101539.25;5114439;28;20019;-67
2023/08/13 09:38:09;;;;;;;17.27;9.75;;;;;;;22.35;77.32;101536.34;5114447;28;20483;-68
2023/08/13 09:40:34;;;;;;;20.10;10.13;;;;;;;22.44;76.55;101534.13;5114367;28;20043;-67
2023/08/13 09:43:06;;;;;;;19.13;9.75;;;;;;;22.56;74.96;101529.53;5114354;28;20043;-68
2023/08/13 09:45:33;;;;;;;19.30;10.18;;;;;;;22.63;74.40;101529.69;5114523;28;20038;-68
2023/08/13 09:48:03;;;;;;;18.65;10.10;;;;;;;22.61;73.15;101532.06;5114409;28;20103;-68
2023/08/13 09:50:38;;;;;;;18.60;10.43;;;;;;;22.56;72.82;101516.28;5114483;28;20032;-68
2023/08/13 09:53:07;;;;;;;19.58;9.90;;;;;;;22.51;72.44;101515.75;5114402;28;20079;-68
2023/08/13 09:55:37;;;;;;;18.52;10.43;;;;;;;22.46;73.82;101513.22;5114116;28;20032;-68
2023/08/13 09:58:04;;;;;;;20.80;10.55;;;;;;;22.51;74.15;101505.28;5114120;28;20019;-68
2023/08/13 10:00:31;;;;;;;19.25;10.30;;;;;;;22.58;73.13;101510.25;5114170;28;20155;-67
2023/08/13 10:02:57;;;;;;;19.38;9.63;;;;;;;22.66;72.62;101512.00;5114152;28;20032;-68
2023/08/13 10:05:23;;;;;;;16.45;9.63;;;;;;;22.87;73.25;101505.94;5113197;28;20047;-68
2023/08/13 10:07:49;;;;;;;20.45;10.05;;;;;;;23.04;71.39;101499.00;5113949;28;20063;-68
2023/08/13 10:10:15;;;;;;;17.42;9.70;;;;;;;23.05;70.80;101502.63;5114237;28;20051;-68
2023/08/13 10:12:41;;;;;;;20.02;10.30;;;;;;;23.16;70.88;101498.00;5129826;27;20102;-68
2023/08/13 10:15:07;;;;;;;18.98;10.00;;;;;;;23.43;71.81;101502.88;5113929;28;20028;-69
2023/08/13 10:17:33;;;;;;;16.77;9.77;;;;;;;23.61;68.29;101503.16;5113871;28;20055;-67
2023/08/13 10:19:59;;;;;;;20.50;10.43;;;;;;;23.64;67.31;101508.88;5113735;28;20063;-68
2023/08/13 10:22:32;;;;;;;23.90;11.27;;;;;;;23.76;68.55;101510.66;5113667;28;20070;-68
2023/08/13 10:24:58;;;;;;;;;;;;;;;23.92;67.85;101515.28;5114199;28;20393;-68
2023/08/13 10:27:23;;;;;;;17.85;9.63;;;;;;;23.66;65.46;101506.47;5113619;28;19908;-68
2023/08/13 10:29:49;;;;;;;19.63;9.90;;;;;;;23.69;65.40;101504.91;5113589;28;20529;-68
2023/08/13 10:32:16;;;;;;;17.02;9.77;;;;;;;23.65;64.16;101509.66;5113568;28;20027;-68
2023/08/13 10:34:47;;;;;;;17.45;9.60;;;;;;;23.64;66.10;101508.88;5113497;28;20027;-68
2023/08/13 10:37:23;;;;;;;20.95;10.02;;;;;;;23.57;65.39;101503.09;5113453;28;20106;-68
2023/08/13 10:39:57;;;;;;;18.75;9.77;;;;;;;23.48;66.21;101502.53;5113451;28;20044;-68
2023/08/13 10:42:33;;;;;;;18.33;10.00;;;;;;;23.37;67.43;101505.22;5113349;28;20024;-68
2023/08/13 10:45:04;;;;;;;18.25;10.20;;;;;;;23.18;66.19;101501.28;5113481;28;20065;-68
2023/08/13 10:47:39;;;;;;;17.40;10.20;;;;;;;23.10;67.42;101496.69;5113244;28;20140;-68
2023/08/13 10:50:28;;;;;;;18.85;9.43;;;;;;;23.09;68.29;101500.69;5111915;28;20023;-68
2023/08/13 10:53:18;;;;;;;18.50;9.30;;;;;;;23.36;68.33;101495.94;5113249;28;20106;-68
2023/08/13 10:55:49;;;;;;;17.67;9.25;;;;;;;23.55;66.59;101499.03;5113204;28;20062;-68
2023/08/13 10:58:26;;;;;;;17.58;9.40;;;;;;;23.68;65.24;101489.94;5113210;28;20513;-68
2023/08/13 11:00:57;;;;;;;19.90;9.32;;;;;;;23.78;66.12;101493.31;5113090;28;20398;-68
2023/08/13 11:03:28;;;;;;;19.00;8.73;;;;;;;23.88;65.84;101484.16;5113096;28;20050;-69